sensor_id;sensor_type;location;lat;lon;timestamp;pressure;altitude;pressure_sealevel;temperature;humidity
14689;BME280;7432;48.728;9.154;2023-02-10T00:01:18;98368.38;;;-2.98;86.78
14689;BME280;7432;48.728;9.154;2023-02-10T00:03:46;98352.78;;;-3.15;86.98
14689;BME280;7432;48.728;9.154;2023-02-10T00:06:13;98357.72;;;-3.11;86.53
14689;BME280;7432;48.728;9.154;2023-02-10T00:08:41;98352.72;;;-3.12;86.33
14689;BME280;7432;48.728;9.154;2023-02-10T00:11:09;98352.72;;;-3.12;87.21
14689;BME280;7432;48.728;9.154;2023-02-10T00:13:37;98354.44;;;-3.16;86.77
14689;BME280;7432;48.728;9.154;2023-02-10T00:16:05;98361.09;;;-3.12;86.80
14689;BME280;7432;48.728;9.154;2023-02-10T00:18:33;98362.84;;;-3.15;86.55
14689;BME280;7432;48.728;9.154;2023-02-10T00:21:05;98364.59;;;-3.19;86.98
14689;BME280;7432;48.728;9.154;2023-02-10T00:23:32;98363.75;;;-3.18;87.29
14689;BME280;7432;48.728;9.154;2023-02-10T00:26:02;98358.72;;;-3.19;86.69
14689;BME280;7432;48.728;9.154;2023-02-10T00:28:28;98345.66;;;-3.38;87.64
14689;BME280;7432;48.728;9.154;2023-02-10T00:30:54;98349.75;;;-3.31;87.45
14689;BME280;7432;48.728;9.154;2023-02-10T00:33:21;98344.88;;;-3.40;87.27
14689;BME280;7432;48.728;9.154;2023-02-10T00:35:48;98350.69;;;-3.36;87.76
14689;BME280;7432;48.728;9.154;2023-02-10T00:38:15;98356.56;;;-3.37;88.05
14689;BME280;7432;48.728;9.154;2023-02-10T00:40:41;98354.94;;;-3.41;87.86
14689;BME280;7432;48.728;9.154;2023-02-10T00:43:07;98353.31;;;-3.42;87.68
14689;BME280;7432;48.728;9.154;2023-02-10T00:45:34;98365.16;;;-3.47;87.85
14689;BME280;7432;48.728;9.154;2023-02-10T00:48:00;98369.25;;;-3.42;87.84
14689;BME280;7432;48.728;9.154;2023-02-10T00:50:27;98371.97;;;-3.52;88.66
14689;BME280;7432;48.728;9.154;2023-02-10T00:52:54;98383.56;;;-3.45;88.29
14689;BME280;7432;48.728;9.154;2023-02-10T00:55:21;98390.28;;;-3.46;88.37
14689;BME280;7432;48.728;9.154;2023-02-10T00:57:47;98370.94;;;-3.44;88.57
14689;BME280;7432;48.728;9.154;2023-02-10T01:00:14;98377.69;;;-3.46;88.64
14689;BME280;7432;48.728;9.154;2023-02-10T01:02:41;98374.34;;;-3.46;88.68
14689;BME280;7432;48.728;9.154;2023-02-10T01:05:07;98379.38;;;-3.45;89.02
14689;BME280;7432;48.728;9.154;2023-02-10T01:07:33;98380.28;;;-3.49;88.36
14689;BME280;7432;48.728;9.154;2023-02-10T01:10:01;98383.66;;;-3.50;88.52
14689;BME280;7432;48.728;9.154;2023-02-10T01:12:27;98380.31;;;-3.52;88.39
14689;BME280;7432;48.728;9.154;2023-02-10T01:14:54;98386.31;;;-3.58;89.23
14689;BME280;7432;48.728;9.154;2023-02-10T01:17:20;98393.94;;;-3.62;89.00
14689;BME280;7432;48.728;9.154;2023-02-10T01:19:47;98393.09;;;-3.61;88.52
14689;BME280;7432;48.728;9.154;2023-02-10T01:22:16;98387.81;;;-3.49;88.50
14689;BME280;7432;48.728;9.154;2023-02-10T01:24:42;98388.75;;;-3.54;88.44
14689;BME280;7432;48.728;9.154;2023-02-10T01:27:10;98392.16;;;-3.55;88.11
14689;BME280;7432;48.728;9.154;2023-02-10T01:29:36;98397.25;;;-3.58;88.57
14689;BME280;7432;48.728;9.154;2023-02-10T01:32:03;98388.03;;;-3.60;88.58
14689;BME280;7432;48.728;9.154;2023-02-10T01:34:29;98386.44;;;-3.65;88.62
14689;BME280;7432;48.728;9.154;2023-02-10T01:36:56;98393.09;;;-3.61;89.28
14689;BME280;7432;48.728;9.154;2023-02-10T01:39:22;98385.56;;;-3.61;89.22
14689;BME280;7432;48.728;9.154;2023-02-10T01:41:48;98374.66;;;-3.63;89.26
14689;BME280;7432;48.728;9.154;2023-02-10T01:47:20;98386.41;;;-3.62;89.21
14689;BME280;7432;48.728;9.154;2023-02-10T01:49:48;98379.81;;;-3.69;88.86
14689;BME280;7432;48.728;9.154;2023-02-10T01:52:18;98381.50;;;-3.71;89.49
14689;BME280;7432;48.728;9.154;2023-02-10T01:54:50;98376.38;;;-3.65;88.97
14689;BME280;7432;48.728;9.154;2023-02-10T01:57:17;98387.25;;;-3.63;88.94
14689;BME280;7432;48.728;9.154;2023-02-10T01:59:44;98375.59;;;-3.69;89.54
14689;BME280;7432;48.728;9.154;2023-02-10T02:02:12;98381.50;;;-3.70;89.52
14689;BME280;7432;48.728;9.154;2023-02-10T02:04:44;98380.63;;;-3.69;88.70
14689;BME280;7432;48.728;9.154;2023-02-10T02:07:12;98384.84;;;-3.69;88.99
14689;BME280;7432;48.728;9.154;2023-02-10T02:09:39;98389.00;;;-3.68;88.88
14689;BME280;7432;48.728;9.154;2023-02-10T02:12:14;98389.16;;;-3.76;90.00
14689;BME280;7432;48.728;9.154;2023-02-10T02:14:48;98385.75;;;-3.72;89.60
14689;BME280;7432;48.728;9.154;2023-02-10T02:17:23;98394.09;;;-3.70;89.49
14689;BME280;7432;48.728;9.154;2023-02-10T02:20:19;98400.84;;;-3.73;89.65
14689;BME280;7432;48.728;9.154;2023-02-10T02:23:20;98410.06;;;-3.72;89.89
14689;BME280;7432;48.728;9.154;2023-02-10T02:26:24;98404.28;;;-3.77;89.03
14689;BME280;7432;48.728;9.154;2023-02-10T02:29:06;98409.47;;;-3.88;90.48
14689;BME280;7432;48.728;9.154;2023-02-10T02:31:46;98411.88;;;-3.82;89.97
14689;BME280;7432;48.728;9.154;2023-02-10T02:34:17;98408.63;;;-3.87;89.58
14689;BME280;7432;48.728;9.154;2023-02-10T02:36:51;98407.66;;;-3.80;89.41
14689;BME280;7432;48.728;9.154;2023-02-10T02:39:21;98411.06;;;-3.82;89.52
14689;BME280;7432;48.728;9.154;2023-02-10T02:41:59;98411.94;;;-3.85;89.79
14689;BME280;7432;48.728;9.154;2023-02-10T02:44:31;98411.13;;;-3.85;89.17
14689;BME280;7432;48.728;9.154;2023-02-10T02:47:03;98410.34;;;-3.89;88.61
14689;BME280;7432;48.728;9.154;2023-02-10T02:49:37;98412.91;;;-3.92;89.66
14689;BME280;7432;48.728;9.154;2023-02-10T02:52:11;98414.84;;;-4.07;90.30
14689;BME280;7432;48.728;9.154;2023-02-10T02:54:42;98415.59;;;-4.04;89.88
14689;BME280;7432;48.728;9.154;2023-02-10T02:57:17;98419.75;;;-4.01;89.83
14689;BME280;7432;48.728;9.154;2023-02-10T02:59:52;98418.06;;;-4.01;89.49
14689;BME280;7432;48.728;9.154;2023-02-10T03:02:24;98415.38;;;-3.89;89.94
14689;BME280;7432;48.728;9.154;2023-02-10T03:04:54;98412.88;;;-3.90;89.32
14689;BME280;7432;48.728;9.154;2023-02-10T03:07:20;98418.88;;;-3.97;89.32
14689;BME280;7432;48.728;9.154;2023-02-10T03:09:47;98417.16;;;-3.95;89.68
14689;BME280;7432;48.728;9.154;2023-02-10T03:12:13;98420.41;;;-3.90;88.75
14689;BME280;7432;48.728;9.154;2023-02-10T03:14:39;98421.34;;;-3.94;88.43
14689;BME280;7432;48.728;9.154;2023-02-10T03:17:06;98419.63;;;-3.92;88.77
14689;BME280;7432;48.728;9.154;2023-02-10T03:19:34;98418.81;;;-3.94;88.74
14689;BME280;7432;48.728;9.154;2023-02-10T03:22:01;98418.91;;;-4.00;89.08
14689;BME280;7432;48.728;9.154;2023-02-10T03:24:27;98425.56;;;-3.98;89.11
14689;BME280;7432;48.728;9.154;2023-02-10T03:26:53;98417.19;;;-3.98;88.81
14689;BME280;7432;48.728;9.154;2023-02-10T03:29:20;98424.88;;;-4.06;88.59
14689;BME280;7432;48.728;9.154;2023-02-10T03:31:46;98426.41;;;-3.99;89.34
14689;BME280;7432;48.728;9.154;2023-02-10T03:34:12;98419.91;;;-4.12;89.67
14689;BME280;7432;48.728;9.154;2023-02-10T03:36:40;98418.28;;;-4.13;88.98
14689;BME280;7432;48.728;9.154;2023-02-10T03:39:06;98431.66;;;-4.12;89.73
14689;BME280;7432;48.728;9.154;2023-02-10T03:41:33;98431.66;;;-4.12;89.73
14689;BME280;7432;48.728;9.154;2023-02-10T03:43:59;98419.91;;;-4.12;89.51
14689;BME280;7432;48.728;9.154;2023-02-10T03:46:26;98429.19;;;-4.14;89.68
14689;BME280;7432;48.728;9.154;2023-02-10T03:48:52;98428.34;;;-4.14;88.97
14689;BME280;7432;48.728;9.154;2023-02-10T03:51:19;98430.91;;;-4.16;88.97
14689;BME280;7432;48.728;9.154;2023-02-10T03:53:47;98437.56;;;-4.13;89.40
14689;BME280;7432;48.728;9.154;2023-02-10T03:56:13;98437.69;;;-4.21;89.59
14689;BME280;7432;48.728;9.154;2023-02-10T03:58:39;98440.91;;;-4.14;89.89
14689;BME280;7432;48.728;9.154;2023-02-10T04:01:10;98446.00;;;-4.18;89.94
14689;BME280;7432;48.728;9.154;2023-02-10T04:03:37;98444.31;;;-4.17;89.96
14689;BME280;7432;48.728;9.154;2023-02-10T04:06:03;98434.34;;;-4.22;90.19
14689;BME280;7432;48.728;9.154;2023-02-10T04:08:30;98437.69;;;-4.21;89.89
14689;BME280;7432;48.728;9.154;2023-02-10T04:10:58;98442.88;;;-4.33;90.30
14689;BME280;7432;48.728;9.154;2023-02-10T04:13:24;98447.06;;;-4.32;90.09
14689;BME280;7432;48.728;9.154;2023-02-10T04:16:00;98447.88;;;-4.32;90.57
14689;BME280;7432;48.728;9.154;2023-02-10T04:18:26;98441.28;;;-4.37;90.95
14689;BME280;7432;48.728;9.154;2023-02-10T04:20:52;98436.13;;;-4.30;90.54
14689;BME280;7432;48.728;9.154;2023-02-10T04:23:19;98441.97;;;-4.28;90.32
14689;BME280;7432;48.728;9.154;2023-02-10T04:25:45;98439.50;;;-4.32;89.91
14689;BME280;7432;48.728;9.154;2023-02-10T04:28:13;98436.16;;;-4.33;89.38
14689;BME280;7432;48.728;9.154;2023-02-10T04:30:39;98446.25;;;-4.36;89.66
14689;BME280;7432;48.728;9.154;2023-02-10T04:33:06;98437.84;;;-4.33;89.80
14689;BME280;7432;48.728;9.154;2023-02-10T04:35:32;98444.47;;;-4.28;90.03
14689;BME280;7432;48.728;9.154;2023-02-10T04:37:58;98441.16;;;-4.30;89.47
14689;BME280;7432;48.728;9.154;2023-02-10T04:40:28;98451.22;;;-4.30;90.29
14689;BME280;7432;48.728;9.154;2023-02-10T04:42:54;98450.38;;;-4.30;89.99
14689;BME280;7432;48.728;9.154;2023-02-10T04:45:22;98447.06;;;-4.32;90.59
14689;BME280;7432;48.728;9.154;2023-02-10T04:47:49;98446.31;;;-4.39;90.71
14689;BME280;7432;48.728;9.154;2023-02-10T04:50:15;98447.88;;;-4.32;90.56
14689;BME280;7432;48.728;9.154;2023-02-10T04:52:41;98442.94;;;-4.38;90.27
14689;BME280;7432;48.728;9.154;2023-02-10T04:55:08;98453.72;;;-4.30;90.43
14689;BME280;7432;48.728;9.154;2023-02-10T04:57:34;98454.59;;;-4.32;90.73
14689;BME280;7432;48.728;9.154;2023-02-10T05:00:00;98452.13;;;-4.37;91.07
14689;BME280;7432;48.728;9.154;2023-02-10T05:02:28;98458.06;;;-4.41;90.68
14689;BME280;7432;48.728;9.154;2023-02-10T05:04:54;98461.56;;;-4.51;91.07
14689;BME280;7432;48.728;9.154;2023-02-10T05:07:21;98456.59;;;-4.57;91.28
14689;BME280;7432;48.728;9.154;2023-02-10T05:09:47;98465.75;;;-4.53;90.88
14689;BME280;7432;48.728;9.154;2023-02-10T05:12:14;98462.50;;;-4.61;91.48
14689;BME280;7432;48.728;9.154;2023-02-10T05:14:40;98462.47;;;-4.56;91.24
14689;BME280;7432;48.728;9.154;2023-02-10T05:17:06;98465.03;;;-4.59;91.28
14689;BME280;7432;48.728;9.154;2023-02-10T05:19:34;98472.44;;;-4.52;91.00
14689;BME280;7432;48.728;9.154;2023-02-10T05:22:00;98475.88;;;-4.59;91.40
14689;BME280;7432;48.728;9.154;2023-02-10T05:24:27;98475.94;;;-4.63;91.11
14689;BME280;7432;48.728;9.154;2023-02-10T05:26:53;98477.63;;;-4.62;90.85
14689;BME280;7432;48.728;9.154;2023-02-10T05:29:20;98469.25;;;-4.63;91.18
14689;BME280;7432;48.728;9.154;2023-02-10T05:31:46;98472.66;;;-4.68;91.17
14689;BME280;7432;48.728;9.154;2023-02-10T05:34:12;98473.44;;;-4.62;90.73
14689;BME280;7432;48.728;9.154;2023-02-10T05:36:40;98477.59;;;-4.59;90.63
14689;BME280;7432;48.728;9.154;2023-02-10T05:39:08;98473.47;;;-4.65;91.12
14689;BME280;7432;48.728;9.154;2023-02-10T05:41:51;98473.53;;;-4.71;91.01
14689;BME280;7432;48.728;9.154;2023-02-10T05:44:18;98482.78;;;-4.74;91.67
14689;BME280;7432;48.728;9.154;2023-02-10T05:46:44;98486.25;;;-4.85;91.62
14689;BME280;7432;48.728;9.154;2023-02-10T05:49:11;98484.59;;;-4.84;91.73
14689;BME280;7432;48.728;9.154;2023-02-10T05:51:38;98479.59;;;-4.89;92.26
14689;BME280;7432;48.728;9.154;2023-02-10T05:54:08;98483.84;;;-4.92;91.99
14689;BME280;7432;48.728;9.154;2023-02-10T05:56:35;98492.16;;;-4.87;92.04
14689;BME280;7432;48.728;9.154;2023-02-10T05:59:01;98486.28;;;-4.88;91.97
14689;BME280;7432;48.728;9.154;2023-02-10T06:01:28;98488.84;;;-4.89;91.57
14689;BME280;7432;48.728;9.154;2023-02-10T06:03:55;98492.19;;;-4.90;91.89
14689;BME280;7432;48.728;9.154;2023-02-10T06:06:21;98491.34;;;-4.91;91.94
14689;BME280;7432;48.728;9.154;2023-02-10T06:08:48;98505.56;;;-4.90;91.83
14689;BME280;7432;48.728;9.154;2023-02-10T06:11:15;98510.63;;;-4.94;91.42
14689;BME280;7432;48.728;9.154;2023-02-10T06:13:42;98513.97;;;-4.94;92.21
14689;BME280;7432;48.728;9.154;2023-02-10T06:16:08;98519.03;;;-4.97;91.79
14689;BME280;7432;48.728;9.154;2023-02-10T06:18:36;98513.97;;;-4.92;91.77
14689;BME280;7432;48.728;9.154;2023-02-10T06:21:03;98526.44;;;-4.86;91.76
14689;BME280;7432;48.728;9.154;2023-02-10T06:23:29;98519.88;;;-4.99;91.72
14689;BME280;7432;48.728;9.154;2023-02-10T06:25:56;98525.75;;;-4.99;91.88
14689;BME280;7432;48.728;9.154;2023-02-10T06:28:26;98522.41;;;-4.99;91.83
14689;BME280;7432;48.728;9.154;2023-02-10T06:30:54;98522.41;;;-4.98;91.69
14689;BME280;7432;48.728;9.154;2023-02-10T06:33:20;98530.84;;;-5.03;92.33
14689;BME280;7432;48.728;9.154;2023-02-10T06:35:46;98532.44;;;-4.98;91.60
14689;BME280;7432;48.728;9.154;2023-02-10T06:38:13;98534.13;;;-5.00;92.11
14689;BME280;7432;48.728;9.154;2023-02-10T06:40:39;98533.38;;;-5.08;91.72
14689;BME280;7432;48.728;9.154;2023-02-10T06:43:06;98530.84;;;-5.06;92.30
14689;BME280;7432;48.728;9.154;2023-02-10T06:45:33;98541.66;;;-4.98;91.90
14689;BME280;7432;48.728;9.154;2023-02-10T06:48:00;98527.41;;;-4.95;91.46
14689;BME280;7432;48.728;9.154;2023-02-10T06:50:27;98539.88;;;-4.89;91.78
14689;BME280;7432;48.728;9.154;2023-02-10T06:52:53;98540.72;;;-4.87;91.78
14689;BME280;7432;48.728;9.154;2023-02-10T06:55:19;98549.84;;;-4.80;91.49
14689;BME280;7432;48.728;9.154;2023-02-10T06:57:46;98549.03;;;-4.82;91.71
14689;BME280;7432;48.728;9.154;2023-02-10T07:00:13;98543.88;;;-4.72;91.95
14689;BME280;7432;48.728;9.154;2023-02-10T07:02:41;98561.34;;;-4.60;90.80
14689;BME280;7432;48.728;9.154;2023-02-10T07:05:10;98563.84;;;-4.57;90.42
14689;BME280;7432;48.728;9.154;2023-02-10T07:07:37;98564.63;;;-4.55;90.99
14689;BME280;7432;48.728;9.154;2023-02-10T07:10:05;98550.44;;;-4.56;90.00
14689;BME280;7432;48.728;9.154;2023-02-10T07:12:32;98571.16;;;-4.39;90.13
14689;BME280;7432;48.728;9.154;2023-02-10T07:14:58;98557.84;;;-4.46;89.84
14689;BME280;7432;48.728;9.154;2023-02-10T07:17:24;98566.19;;;-4.44;90.21
14689;BME280;7432;48.728;9.154;2023-02-10T07:19:52;98559.28;;;-4.28;90.24
14689;BME280;7432;48.728;9.154;2023-02-10T07:22:19;98554.94;;;-4.15;89.46
14689;BME280;7432;48.728;9.154;2023-02-10T07:24:46;98566.47;;;-3.99;89.50
14689;BME280;7432;48.728;9.154;2023-02-10T07:27:12;98556.25;;;-3.89;88.70
14689;BME280;7432;48.728;9.154;2023-02-10T07:29:39;98568.84;;;-3.90;87.98
14689;BME280;7432;48.728;9.154;2023-02-10T07:32:05;98571.25;;;-3.81;88.68
14689;BME280;7432;48.728;9.154;2023-02-10T07:34:32;98567.84;;;-3.79;87.80
14689;BME280;7432;48.728;9.154;2023-02-10T07:37:01;98565.22;;;-3.71;88.48
14689;BME280;7432;48.728;9.154;2023-02-10T07:39:27;98553.44;;;-3.68;87.92
14689;BME280;7432;48.728;9.154;2023-02-10T07:41:53;98567.31;;;-3.42;88.28
14689;BME280;7432;48.728;9.154;2023-02-10T07:44:20;98571.91;;;-3.17;87.78
14689;BME280;7432;48.728;9.154;2023-02-10T07:46:47;98574.19;;;-3.02;87.33
14689;BME280;7432;48.728;9.154;2023-02-10T07:49:13;98582.13;;;-2.74;86.31
14689;BME280;7432;48.728;9.154;2023-02-10T07:51:40;98581.41;;;-1.23;86.51
14689;BME280;7432;48.728;9.154;2023-02-10T07:54:09;98574.75;;;1.83;74.16
14689;BME280;7432;48.728;9.154;2023-02-10T07:56:35;98579.09;;;4.09;64.70
14689;BME280;7432;48.728;9.154;2023-02-10T07:59:02;98583.53;;;5.30;56.31
14689;BME280;7432;48.728;9.154;2023-02-10T08:01:29;98585.13;;;6.92;53.01
14689;BME280;7432;48.728;9.154;2023-02-10T08:03:58;98585.00;;;8.38;48.56
14689;BME280;7432;48.728;9.154;2023-02-10T08:06:25;98581.56;;;9.94;45.65
14689;BME280;7432;48.728;9.154;2023-02-10T08:08:52;98579.94;;;11.59;41.37
14689;BME280;7432;48.728;9.154;2023-02-10T08:11:19;98583.81;;;12.96;38.57
14689;BME280;7432;48.728;9.154;2023-02-10T08:13:46;98586.31;;;13.71;36.74
14689;BME280;7432;48.728;9.154;2023-02-10T08:16:12;98585.31;;;14.63;34.99
14689;BME280;7432;48.728;9.154;2023-02-10T08:18:39;98590.38;;;15.03;34.92
14689;BME280;7432;48.728;9.154;2023-02-10T08:21:06;98592.25;;;15.87;32.02
14689;BME280;7432;48.728;9.154;2023-02-10T08:23:33;98601.38;;;17.00;30.98
14689;BME280;7432;48.728;9.154;2023-02-10T08:26:02;98598.09;;;17.51;29.90
14689;BME280;7432;48.728;9.154;2023-02-10T08:28:31;98611.47;;;17.99;28.68
14689;BME280;7432;48.728;9.154;2023-02-10T08:30:58;98606.00;;;18.44;28.30
14689;BME280;7432;48.728;9.154;2023-02-10T08:33:25;98603.38;;;18.44;27.17
14689;BME280;7432;48.728;9.154;2023-02-10T08:35:51;98610.59;;;19.24;27.59
14689;BME280;7432;48.728;9.154;2023-02-10T08:38:17;98615.50;;;19.76;25.91
14689;BME280;7432;48.728;9.154;2023-02-10T08:40:44;98612.22;;;19.98;25.87
14689;BME280;7432;48.728;9.154;2023-02-10T08:43:10;98611.88;;;20.01;25.96
14689;BME280;7432;48.728;9.154;2023-02-10T08:45:38;98614.31;;;20.57;25.45
14689;BME280;7432;48.728;9.154;2023-02-10T08:48:05;98608.09;;;20.58;24.75
14689;BME280;7432;48.728;9.154;2023-02-10T08:50:31;98605.09;;;20.31;24.58
14689;BME280;7432;48.728;9.154;2023-02-10T08:52:58;98615.34;;;20.87;24.44
14689;BME280;7432;48.728;9.154;2023-02-10T08:55:24;98611.69;;;20.65;24.08
14689;BME280;7432;48.728;9.154;2023-02-10T08:57:50;98612.56;;;21.34;23.77
14689;BME280;7432;48.728;9.154;2023-02-10T09:00:17;98610.78;;;21.04;24.23
14689;BME280;7432;48.728;9.154;2023-02-10T09:02:45;98608.25;;;20.26;24.36
14689;BME280;7432;48.728;9.154;2023-02-10T09:05:11;98602.34;;;18.29;26.51
14689;BME280;7432;48.728;9.154;2023-02-10T09:07:39;98610.50;;;15.29;29.89
14689;BME280;7432;48.728;9.154;2023-02-10T09:10:06;98606.66;;;12.37;33.79
14689;BME280;7432;48.728;9.154;2023-02-10T09:12:35;98600.47;;;10.31;37.76
14689;BME280;7432;48.728;9.154;2023-02-10T09:15:02;98607.72;;;8.58;41.24
14689;BME280;7432;48.728;9.154;2023-02-10T09:17:28;98609.34;;;7.16;44.87
14689;BME280;7432;48.728;9.154;2023-02-10T09:19:56;98595.66;;;6.09;46.86
14689;BME280;7432;48.728;9.154;2023-02-10T09:22:22;98597.72;;;5.68;48.36
14689;BME280;7432;48.728;9.154;2023-02-10T09:24:49;98584.38;;;4.95;50.67
14689;BME280;7432;48.728;9.154;2023-02-10T09:27:18;98603.44;;;4.52;51.92
14689;BME280;7432;48.728;9.154;2023-02-10T09:29:45;98600.66;;;4.39;53.39
14689;BME280;7432;48.728;9.154;2023-02-10T09:32:11;98599.69;;;4.23;54.47
14689;BME280;7432;48.728;9.154;2023-02-10T09:34:37;98596.31;;;4.23;54.62
14689;BME280;7432;48.728;9.154;2023-02-10T09:37:06;98597.09;;;3.86;55.65
14689;BME280;7432;48.728;9.154;2023-02-10T09:39:33;98604.31;;;3.76;56.62
14689;BME280;7432;48.728;9.154;2023-02-10T09:42:07;98609.97;;;3.83;56.36
14689;BME280;7432;48.728;9.154;2023-02-10T09:44:38;98607.56;;;3.80;57.98
14689;BME280;7432;48.728;9.154;2023-02-10T09:47:17;98605.34;;;3.72;57.67
14689;BME280;7432;48.728;9.154;2023-02-10T09:49:58;98604.66;;;3.69;57.37
14689;BME280;7432;48.728;9.154;2023-02-10T09:52:36;98601.94;;;3.72;58.24
14689;BME280;7432;48.728;9.154;2023-02-10T09:55:12;98606.06;;;3.55;58.76
14689;BME280;7432;48.728;9.154;2023-02-10T09:57:42;98603.00;;;3.68;58.75
14689;BME280;7432;48.728;9.154;2023-02-10T10:00:23;98610.06;;;3.61;58.22
14689;BME280;7432;48.728;9.154;2023-02-10T10:02:52;98612.44;;;3.45;60.14
14689;BME280;7432;48.728;9.154;2023-02-10T10:05:25;98606.75;;;3.39;59.94
14689;BME280;7432;48.728;9.154;2023-02-10T10:07:58;98603.44;;;3.37;60.48
14689;BME280;7432;48.728;9.154;2023-02-10T10:10:31;98608.09;;;3.47;59.72
14689;BME280;7432;48.728;9.154;2023-02-10T10:12:58;98605.28;;;3.53;59.94
14689;BME280;7432;48.728;9.154;2023-02-10T10:15:31;98604.28;;;3.37;59.65
14689;BME280;7432;48.728;9.154;2023-02-10T10:18:03;98604.34;;;3.56;58.47
14689;BME280;7432;48.728;9.154;2023-02-10T10:20:50;98610.13;;;3.59;58.95
14689;BME280;7432;48.728;9.154;2023-02-10T10:23:36;98602.69;;;3.55;59.88
14689;BME280;7432;48.728;9.154;2023-02-10T10:26:15;98607.38;;;3.64;59.76
14689;BME280;7432;48.728;9.154;2023-02-10T10:28:55;98602.00;;;3.51;60.18
14689;BME280;7432;48.728;9.154;2023-02-10T10:31:29;98599.13;;;3.59;58.73
14689;BME280;7432;48.728;9.154;2023-02-10T10:34:01;98604.41;;;3.54;58.56
14689;BME280;7432;48.728;9.154;2023-02-10T10:36:33;98596.78;;;3.54;58.70
14689;BME280;7432;48.728;9.154;2023-02-10T10:39:11;98602.00;;;3.51;58.12
14689;BME280;7432;48.728;9.154;2023-02-10T10:41:40;98597.72;;;3.52;57.80
14689;BME280;7432;48.728;9.154;2023-02-10T10:44:09;98603.25;;;3.62;59.03
14689;BME280;7432;48.728;9.154;2023-02-10T10:46:40;98602.25;;;3.45;59.96
14689;BME280;7432;48.728;9.154;2023-02-10T10:49:08;98597.41;;;3.39;60.05
14689;BME280;7432;48.728;9.154;2023-02-10T10:51:35;98595.22;;;3.50;58.69
14689;BME280;7432;48.728;9.154;2023-02-10T10:54:05;98594.69;;;3.44;57.87
14689;BME280;7432;48.728;9.154;2023-02-10T10:56:40;98600.00;;;3.58;58.13
14689;BME280;7432;48.728;9.154;2023-02-10T10:59:12;98594.84;;;3.59;53.92
14689;BME280;7432;48.728;9.154;2023-02-10T11:01:41;98584.72;;;3.58;55.10
14689;BME280;7432;48.728;9.154;2023-02-10T11:04:11;98586.34;;;3.61;55.70
14689;BME280;7432;48.728;9.154;2023-02-10T11:06:40;98594.97;;;3.56;54.55
14689;BME280;7432;48.728;9.154;2023-02-10T11:09:19;98586.25;;;3.62;55.62
14689;BME280;7432;48.728;9.154;2023-02-10T11:11:47;98552.69;;;3.52;56.00
14689;BME280;7432;48.728;9.154;2023-02-10T11:14:17;98576.03;;;3.82;55.68
14689;BME280;7432;48.728;9.154;2023-02-10T11:16:46;98577.19;;;3.94;56.08
14689;BME280;7432;48.728;9.154;2023-02-10T11:19:19;98576.78;;;3.84;55.50
14689;BME280;7432;48.728;9.154;2023-02-10T11:21:46;98578.16;;;3.91;55.57
14689;BME280;7432;48.728;9.154;2023-02-10T11:24:19;98577.41;;;3.89;54.47
14689;BME280;7432;48.728;9.154;2023-02-10T11:26:58;98575.81;;;3.68;54.65
14689;BME280;7432;48.728;9.154;2023-02-10T11:29:25;98569.66;;;3.72;54.83
14689;BME280;7432;48.728;9.154;2023-02-10T11:31:53;98580.78;;;3.71;54.86
14689;BME280;7432;48.728;9.154;2023-02-10T11:34:23;98573.66;;;3.78;55.46
14689;BME280;7432;48.728;9.154;2023-02-10T11:36:51;98562.38;;;3.83;56.84
14689;BME280;7432;48.728;9.154;2023-02-10T11:39:22;98570.25;;;3.79;58.49
14689;BME280;7432;48.728;9.154;2023-02-10T11:41:51;98570.59;;;3.71;56.61
14689;BME280;7432;48.728;9.154;2023-02-10T11:44:27;98567.69;;;3.79;56.63
14689;BME280;7432;48.728;9.154;2023-02-10T11:46:56;98564.88;;;3.66;57.43
14689;BME280;7432;48.728;9.154;2023-02-10T11:49:23;98570.59;;;3.71;57.27
14689;BME280;7432;48.728;9.154;2023-02-10T11:51:53;98562.59;;;3.79;55.36
14689;BME280;7432;48.728;9.154;2023-02-10T11:54:22;98570.44;;;3.74;54.58
14689;BME280;7432;48.728;9.154;2023-02-10T11:56:56;98570.72;;;3.87;55.00
14689;BME280;7432;48.728;9.154;2023-02-10T11:59:48;98568.88;;;3.90;54.26
14689;BME280;7432;48.728;9.154;2023-02-10T12:02:26;98568.47;;;3.99;53.96
14689;BME280;7432;48.728;9.154;2023-02-10T12:05:13;98562.47;;;4.00;53.08
14689;BME280;7432;48.728;9.154;2023-02-10T12:07:54;98564.19;;;4.00;54.44
14689;BME280;7432;48.728;9.154;2023-02-10T12:10:31;98549.72;;;4.00;54.85
14689;BME280;7432;48.728;9.154;2023-02-10T12:13:03;98553.31;;;4.15;56.61
14689;BME280;7432;48.728;9.154;2023-02-10T12:15:41;98535.88;;;4.06;56.48
14689;BME280;7432;48.728;9.154;2023-02-10T12:18:28;98554.94;;;4.16;55.49
14689;BME280;7432;48.728;9.154;2023-02-10T12:21:08;98554.75;;;4.21;56.25
14689;BME280;7432;48.728;9.154;2023-02-10T12:23:49;98552.13;;;4.22;56.14
14689;BME280;7432;48.728;9.154;2023-02-10T12:26:25;98555.09;;;4.13;54.92
14689;BME280;7432;48.728;9.154;2023-02-10T12:29:00;98549.84;;;4.16;55.28
14689;BME280;7432;48.728;9.154;2023-02-10T12:31:38;98545.38;;;4.21;54.94
14689;BME280;7432;48.728;9.154;2023-02-10T12:34:31;98545.31;;;4.23;54.21
14689;BME280;7432;48.728;9.154;2023-02-10T12:37:09;98548.28;;;4.13;54.16
14689;BME280;7432;48.728;9.154;2023-02-10T12:39:43;98544.16;;;4.11;53.72
14689;BME280;7432;48.728;9.154;2023-02-10T12:42:36;98534.63;;;4.14;53.42
14689;BME280;7432;48.728;9.154;2023-02-10T12:45:13;98532.38;;;4.08;54.30
14689;BME280;7432;48.728;9.154;2023-02-10T12:47:48;98527.75;;;4.16;54.14
14689;BME280;7432;48.728;9.154;2023-02-10T12:50:31;98533.19;;;4.09;53.84
14689;BME280;7432;48.728;9.154;2023-02-10T12:53:05;98521.56;;;4.03;53.18
14689;BME280;7432;48.728;9.154;2023-02-10T12:55:42;98526.78;;;4.00;53.93
14689;BME280;7432;48.728;9.154;2023-02-10T12:58:15;98528.28;;;4.04;53.36
14689;BME280;7432;48.728;9.154;2023-02-10T13:00:46;98526.72;;;4.02;52.39
14689;BME280;7432;48.728;9.154;2023-02-10T13:03:18;98517.78;;;4.12;52.57
14689;BME280;7432;48.728;9.154;2023-02-10T13:05:47;98511.75;;;4.13;54.02
14689;BME280;7432;48.728;9.154;2023-02-10T13:08:20;98510.25;;;4.09;53.58
14689;BME280;7432;48.728;9.154;2023-02-10T13:10:51;98514.72;;;4.23;53.34
14689;BME280;7432;48.728;9.154;2023-02-10T13:13:22;98513.34;;;4.15;53.00
14689;BME280;7432;48.728;9.154;2023-02-10T13:15:52;98520.72;;;4.22;53.27
14689;BME280;7432;48.728;9.154;2023-02-10T13:18:22;98519.59;;;4.27;52.82
14689;BME280;7432;48.728;9.154;2023-02-10T13:20:55;98515.41;;;4.26;52.32
14689;BME280;7432;48.728;9.154;2023-02-10T13:23:29;98511.25;;;4.24;53.08
14689;BME280;7432;48.728;9.154;2023-02-10T13:26:24;98510.72;;;4.17;52.98
14689;BME280;7432;48.728;9.154;2023-02-10T13:29:01;98515.41;;;4.07;52.95
14689;BME280;7432;48.728;9.154;2023-02-10T13:31:44;98514.44;;;4.10;52.31